sensor_id;sensor_type;location;lat;lon;timestamp;pressure;altitude;pressure_sealevel;temperature;humidity
45525;BME280;31437;58.350;13.828;2023-04-01T00:01:53;100026.56;;;-6.54;100.00
45525;BME280;31437;58.350;13.828;2023-04-01T00:04:18;100028.28;;;-6.55;100.00
45525;BME280;31437;58.350;13.828;2023-04-01T00:06:44;100032.56;;;-6.52;100.00
45525;BME280;31437;58.350;13.828;2023-04-01T00:09:09;100030.78;;;-6.56;100.00
45525;BME280;31437;58.350;13.828;2023-04-01T00:11:35;100031.66;;;-6.57;100.00
45525;BME280;31437;58.350;13.828;2023-04-01T00:14:00;100038.41;;;-6.59;100.00
45525;BME280;31437;58.350;13.828;2023-04-01T00:16:26;100041.00;;;-6.58;100.00
45525;BME280;31437;58.350;13.828;2023-04-01T00:18:51;100041.84;;;-6.56;100.00
45525;BME280;31437;58.350;13.828;2023-04-01T00:21:17;100048.63;;;-6.59;100.00
45525;BME280;31437;58.350;13.828;2023-04-01T00:23:42;100048.59;;;-6.63;100.00
45525;BME280;31437;58.350;13.828;2023-04-01T00:26:08;100051.94;;;-6.65;100.00
45525;BME280;31437;58.350;13.828;2023-04-01T00:28:34;100052.91;;;-6.58;100.00
45525;BME280;31437;58.350;13.828;2023-04-01T00:31:03;100053.75;;;-6.58;100.00
45525;BME280;31437;58.350;13.828;2023-04-01T00:33:28;100058.00;;;-6.57;100.00
45525;BME280;31437;58.350;13.828;2023-04-01T00:35:55;100051.22;;;-6.58;100.00
45525;BME280;31437;58.350;13.828;2023-04-01T00:38:21;100056.28;;;-6.59;100.00
45525;BME280;31437;58.350;13.828;2023-04-01T00:40:46;100049.44;;;-6.62;100.00
45525;BME280;31437;58.350;13.828;2023-04-01T00:43:17;100049.41;;;-6.65;100.00
45525;BME280;31437;58.350;13.828;2023-04-01T00:45:46;100052.72;;;-6.71;100.00
45525;BME280;31437;58.350;13.828;2023-04-01T00:48:14;100045.00;;;-6.77;100.00
45525;BME280;31437;58.350;13.828;2023-04-01T00:50:42;100052.63;;;-6.78;100.00
45525;BME280;31437;58.350;13.828;2023-04-01T00:53:09;100061.22;;;-6.73;100.00
45525;BME280;31437;58.350;13.828;2023-04-01T00:55:36;100056.97;;;-6.73;100.00
45525;BME280;31437;58.350;13.828;2023-04-01T00:58:05;100051.88;;;-6.73;100.00
45525;BME280;31437;58.350;13.828;2023-04-01T01:00:32;100056.19;;;-6.66;100.00
45525;BME280;31437;58.350;13.828;2023-04-01T01:02:58;100046.84;;;-6.67;100.00
45525;BME280;31437;58.350;13.828;2023-04-01T01:05:29;100049.44;;;-6.62;100.00
45525;BME280;31437;58.350;13.828;2023-04-01T01:10:31;100052.13;;;-6.51;100.00
45525;BME280;31437;58.350;13.828;2023-04-01T01:15:25;100036.00;;;-6.49;100.00
45525;BME280;31437;58.350;13.828;2023-04-01T01:17:55;100030.94;;;-6.46;100.00
45525;BME280;31437;58.350;13.828;2023-04-01T01:31:14;100038.31;;;-6.69;100.00
45525;BME280;31437;58.350;13.828;2023-04-01T01:36:17;100034.81;;;-6.75;100.00
45525;BME280;31437;58.350;13.828;2023-04-01T01:38:43;100036.44;;;-6.80;100.00
45525;BME280;31437;58.350;13.828;2023-04-01T01:41:10;100026.16;;;-6.87;100.00
45525;BME280;31437;58.350;13.828;2023-04-01T01:43:39;100037.16;;;-6.89;100.00
45525;BME280;31437;58.350;13.828;2023-04-01T01:46:07;100043.13;;;-6.89;100.00
45525;BME280;31437;58.350;13.828;2023-04-01T01:48:34;100032.03;;;-6.94;100.00
45525;BME280;31437;58.350;13.828;2023-04-01T01:51:00;100041.34;;;-6.94;100.00
45525;BME280;31437;58.350;13.828;2023-04-01T01:53:26;100042.28;;;-6.91;100.00
45525;BME280;31437;58.350;13.828;2023-04-01T01:55:51;100038.78;;;-6.94;100.00
45525;BME280;31437;58.350;13.828;2023-04-01T02:00:50;100037.97;;;-6.92;100.00
45525;BME280;31437;58.350;13.828;2023-04-01T02:03:15;100037.13;;;-6.94;100.00
45525;BME280;31437;58.350;13.828;2023-04-01T02:05:42;100037.13;;;-6.92;100.00
45525;BME280;31437;58.350;13.828;2023-04-01T02:08:43;100035.50;;;-6.86;100.00
45525;BME280;31437;58.350;13.828;2023-04-01T02:11:04;100038.88;;;-6.90;100.00
45525;BME280;31437;58.350;13.828;2023-04-01T02:13:35;100032.06;;;-6.91;100.00
45525;BME280;31437;58.350;13.828;2023-04-01T02:16:04;100035.38;;;-6.95;100.00
45525;BME280;31437;58.350;13.828;2023-04-01T02:18:33;100027.69;;;-6.98;100.00
45525;BME280;31437;58.350;13.828;2023-04-01T02:21:00;100028.53;;;-6.99;100.00
45525;BME280;31437;58.350;13.828;2023-04-01T02:23:26;100033.59;;;-7.00;100.00
45525;BME280;31437;58.350;13.828;2023-04-01T02:25:52;100029.34;;;-7.01;100.00
45525;BME280;31437;58.350;13.828;2023-04-01T02:28:18;100031.97;;;-6.97;100.00
45525;BME280;31437;58.350;13.828;2023-04-01T02:30:45;100026.03;;;-6.94;100.00
45525;BME280;31437;58.350;13.828;2023-04-01T02:33:11;100026.88;;;-6.95;100.00
45525;BME280;31437;58.350;13.828;2023-04-01T02:35:37;100032.88;;;-6.93;100.00
45525;BME280;31437;58.350;13.828;2023-04-01T02:38:02;100029.50;;;-6.91;100.00
45525;BME280;31437;58.350;13.828;2023-04-01T02:40:28;100030.31;;;-6.92;100.00
45525;BME280;31437;58.350;13.828;2023-04-01T02:42:53;100032.03;;;-6.92;100.00
45525;BME280;31437;58.350;13.828;2023-04-01T02:45:19;100020.03;;;-6.99;100.00
45525;BME280;31437;58.350;13.828;2023-04-01T02:47:44;100022.50;;;-7.05;100.00
45525;BME280;31437;58.350;13.828;2023-04-01T02:50:09;100032.53;;;-7.16;100.00
45525;BME280;31437;58.350;13.828;2023-04-01T02:52:35;100018.00;;;-7.22;100.00
45525;BME280;31437;58.350;13.828;2023-04-01T02:55:02;100030.75;;;-7.23;100.00
45525;BME280;31437;58.350;13.828;2023-04-01T02:57:28;100023.78;;;-7.34;100.00
45525;BME280;31437;58.350;13.828;2023-04-01T02:59:54;100026.31;;;-7.34;100.00
45525;BME280;31437;58.350;13.828;2023-04-01T03:02:19;100028.81;;;-7.37;100.00
45525;BME280;31437;58.350;13.828;2023-04-01T03:04:44;100033.13;;;-7.34;100.00
45525;BME280;31437;58.350;13.828;2023-04-01T03:07:10;100035.75;;;-7.26;100.00
45525;BME280;31437;58.350;13.828;2023-04-01T03:09:39;100035.00;;;-7.22;100.00
45525;BME280;31437;58.350;13.828;2023-04-01T03:12:05;100033.38;;;-7.16;100.00
45525;BME280;31437;58.350;13.828;2023-04-01T03:14:30;100034.16;;;-7.23;100.00
45525;BME280;31437;58.350;13.828;2023-04-01T03:16:56;100026.38;;;-7.32;100.00
45525;BME280;31437;58.350;13.828;2023-04-01T03:19:21;100029.72;;;-7.33;100.00
45525;BME280;31437;58.350;13.828;2023-04-01T03:21:47;100022.28;;;-7.19;100.00
45525;BME280;31437;58.350;13.828;2023-04-01T03:24:12;100029.91;;;-7.21;100.00
45525;BME280;31437;58.350;13.828;2023-04-01T03:26:37;100017.88;;;-7.31;100.00
45525;BME280;31437;58.350;13.828;2023-04-01T03:29:02;100024.56;;;-7.38;100.00
45525;BME280;31437;58.350;13.828;2023-04-01T03:31:28;100017.56;;;-7.51;100.00
45525;BME280;31437;58.350;13.828;2023-04-01T03:33:53;100020.13;;;-7.49;100.00
45525;BME280;31437;58.350;13.828;2023-04-01T03:36:18;100016.94;;;-7.36;100.00
45525;BME280;31437;58.350;13.828;2023-04-01T03:38:44;100024.75;;;-7.25;100.00
45525;BME280;31437;58.350;13.828;2023-04-01T03:41:16;100021.44;;;-7.18;100.00
45525;BME280;31437;58.350;13.828;2023-04-01T03:43:41;100023.31;;;-7.08;100.00
45525;BME280;31437;58.350;13.828;2023-04-01T03:46:07;100013.97;;;-7.06;100.00
45525;BME280;31437;58.350;13.828;2023-04-01T03:48:32;100019.97;;;-7.04;100.00
45525;BME280;31437;58.350;13.828;2023-04-01T03:50:58;100027.66;;;-7.02;100.00
45525;BME280;31437;58.350;13.828;2023-04-01T03:53:23;100013.25;;;-6.99;100.00
45525;BME280;31437;58.350;13.828;2023-04-01T03:55:48;100020.84;;;-7.00;100.00
45525;BME280;31437;58.350;13.828;2023-04-01T03:58:16;100025.09;;;-7.01;100.00
45525;BME280;31437;58.350;13.828;2023-04-01T04:00:41;100019.06;;;-7.07;100.00
45525;BME280;31437;58.350;13.828;2023-04-01T04:03:06;100015.59;;;-7.13;100.00
45525;BME280;31437;58.350;13.828;2023-04-01T04:05:32;100016.41;;;-7.15;100.00
45525;BME280;31437;58.350;13.828;2023-04-01T04:07:57;100018.94;;;-7.15;100.00
45525;BME280;31437;58.350;13.828;2023-04-01T04:10:22;100031.66;;;-7.18;100.00
45525;BME280;31437;58.350;13.828;2023-04-01T04:12:50;100032.44;;;-7.21;100.00
45525;BME280;31437;58.350;13.828;2023-04-01T04:15:15;100035.84;;;-7.22;100.00
45525;BME280;31437;58.350;13.828;2023-04-01T04:17:40;100029.75;;;-7.32;100.00
45525;BME280;31437;58.350;13.828;2023-04-01T04:20:06;100045.81;;;-7.37;100.00
45525;BME280;31437;58.350;13.828;2023-04-01T04:22:31;100045.72;;;-7.43;100.00
45525;BME280;31437;58.350;13.828;2023-04-01T04:24:57;100049.03;;;-7.47;100.00
45525;BME280;31437;58.350;13.828;2023-04-01T04:27:22;100058.31;;;-7.51;100.00
45525;BME280;31437;58.350;13.828;2023-04-01T04:29:47;100058.22;;;-7.57;100.00
45525;BME280;31437;58.350;13.828;2023-04-01T04:32:12;100073.50;;;-7.59;100.00
45525;BME280;31437;58.350;13.828;2023-04-01T04:34:38;100070.84;;;-7.63;100.00
45525;BME280;31437;58.350;13.828;2023-04-01T04:37:03;100070.00;;;-7.62;100.00
45525;BME280;31437;58.350;13.828;2023-04-01T04:39:28;100074.31;;;-7.61;100.00
45525;BME280;31437;58.350;13.828;2023-04-01T04:41:54;100083.81;;;-7.51;100.00
45525;BME280;31437;58.350;13.828;2023-04-01T04:44:19;100076.34;;;-7.39;100.00
45525;BME280;31437;58.350;13.828;2023-04-01T04:46:44;100080.88;;;-7.22;100.00
45525;BME280;31437;58.350;13.828;2023-04-01T04:49:10;100089.78;;;-6.96;100.00
45525;BME280;31437;58.350;13.828;2023-04-01T04:51:35;100092.69;;;-6.73;100.00
45525;BME280;31437;58.350;13.828;2023-04-01T04:54:01;100096.50;;;-6.43;100.00
45525;BME280;31437;58.350;13.828;2023-04-01T04:56:27;100094.41;;;-6.03;100.00
45525;BME280;31437;58.350;13.828;2023-04-01T04:58:52;100095.63;;;-5.67;100.00
45525;BME280;31437;58.350;13.828;2023-04-01T05:01:17;100095.06;;;-5.36;100.00
45525;BME280;31437;58.350;13.828;2023-04-01T05:03:43;100071.38;;;-5.13;100.00
45525;BME280;31437;58.350;13.828;2023-04-01T05:06:09;100082.72;;;-4.77;100.00
45525;BME280;31437;58.350;13.828;2023-04-01T05:08:35;100074.41;;;-4.40;100.00
45525;BME280;31437;58.350;13.828;2023-04-01T05:11:02;100059.13;;;-4.15;100.00
45525;BME280;31437;58.350;13.828;2023-04-01T05:13:27;100046.38;;;-3.89;100.00
45525;BME280;31437;58.350;13.828;2023-04-01T05:15:53;100031.91;;;-3.76;100.00
45525;BME280;31437;58.350;13.828;2023-04-01T05:18:18;100017.34;;;-3.71;100.00
45525;BME280;31437;58.350;13.828;2023-04-01T05:20:47;100007.13;;;-3.39;100.00
45525;BME280;31437;58.350;13.828;2023-04-01T05:23:13;100001.97;;;-3.27;100.00
45525;BME280;31437;58.350;13.828;2023-04-01T05:25:38;99999.34;;;-2.84;100.00
45525;BME280;31437;58.350;13.828;2023-04-01T05:28:03;99989.03;;;-2.71;100.00
45525;BME280;31437;58.350;13.828;2023-04-01T05:30:29;99980.31;;;-2.38;100.00
45525;BME280;31437;58.350;13.828;2023-04-01T05:32:54;99959.69;;;-2.24;100.00
45525;BME280;31437;58.350;13.828;2023-04-01T05:35:19;99927.03;;;-2.02;100.00
45525;BME280;31437;58.350;13.828;2023-04-01T05:37:45;99897.69;;;-1.80;100.00
45525;BME280;31437;58.350;13.828;2023-04-01T05:40:10;99883.81;;;-1.61;100.00
45525;BME280;31437;58.350;13.828;2023-04-01T05:42:35;99877.94;;;-1.75;100.00
45525;BME280;31437;58.350;13.828;2023-04-01T05:45:01;99881.97;;;-1.48;100.00
45525;BME280;31437;58.350;13.828;2023-04-01T05:47:26;99891.28;;;-1.34;100.00
45525;BME280;31437;58.350;13.828;2023-04-01T05:49:51;99906.56;;;-1.18;100.00
45525;BME280;31437;58.350;13.828;2023-04-01T05:52:16;99914.88;;;-0.97;100.00
45525;BME280;31437;58.350;13.828;2023-04-01T05:54:42;99915.50;;;-0.75;100.00
45525;BME280;31437;58.350;13.828;2023-04-01T05:57:07;99910.19;;;-0.63;100.00
45525;BME280;31437;58.350;13.828;2023-04-01T05:59:32;99903.03;;;-0.41;100.00
45525;BME280;31437;58.350;13.828;2023-04-01T06:01:59;99913.97;;;-0.27;100.00
45525;BME280;31437;58.350;13.828;2023-04-01T06:04:46;99904.44;;;-0.21;100.00
45525;BME280;31437;58.350;13.828;2023-04-01T06:07:16;99895.56;;;-0.02;100.00
45525;BME280;31437;58.350;13.828;2023-04-01T06:09:42;99898.50;;;-0.25;100.00
45525;BME280;31437;58.350;13.828;2023-04-01T06:20:25;99885.75;;;0.20;100.00
45525;BME280;31437;58.350;13.828;2023-04-01T06:30:56;99876.88;;;0.36;100.00
45525;BME280;31437;58.350;13.828;2023-04-01T06:33:33;99871.16;;;0.17;100.00
45525;BME280;31437;58.350;13.828;2023-04-01T06:36:04;99872.91;;;0.17;100.00
45525;BME280;31437;58.350;13.828;2023-04-01T06:41:00;99887.41;;;0.24;100.00
45525;BME280;31437;58.350;13.828;2023-04-01T06:43:38;99899.03;;;0.48;100.00
45525;BME280;31437;58.350;13.828;2023-04-01T06:46:12;99896.97;;;0.67;100.00
45525;BME280;31437;58.350;13.828;2023-04-01T06:53:57;99896.25;;;0.60;100.00
45525;BME280;31437;58.350;13.828;2023-04-01T06:56:27;99923.56;;;0.72;100.00
45525;BME280;31437;58.350;13.828;2023-04-01T06:58:53;99930.53;;;0.67;100.00
45525;BME280;31437;58.350;13.828;2023-04-01T07:01:28;99929.94;;;0.99;100.00
45525;BME280;31437;58.350;13.828;2023-04-01T07:04:01;99943.06;;;1.32;100.00
45525;BME280;31437;58.350;13.828;2023-04-01T07:08:56;100009.16;;;1.89;100.00
45525;BME280;31437;58.350;13.828;2023-04-01T07:11:31;100066.25;;;1.78;100.00
45525;BME280;31437;58.350;13.828;2023-04-01T07:14:01;100029.22;;;1.77;100.00
45525;BME280;31437;58.350;13.828;2023-04-01T07:21:41;99300.09;;;1.71;100.00
45525;BME280;31437;58.350;13.828;2023-04-01T07:24:16;99303.63;;;1.69;100.00
45525;BME280;31437;58.350;13.828;2023-04-01T07:26:43;99302.47;;;1.51;100.00
45525;BME280;31437;58.350;13.828;2023-04-01T07:29:12;99307.44;;;1.29;100.00
45525;BME280;31437;58.350;13.828;2023-04-01T07:34:25;99313.31;;;1.62;100.00
45525;BME280;31437;58.350;13.828;2023-04-01T07:36:58;99311.28;;;1.72;100.00
45525;BME280;31437;58.350;13.828;2023-04-01T07:39:42;99327.28;;;1.56;100.00
45525;BME280;31437;58.350;13.828;2023-04-01T07:47:23;99330.97;;;1.76;100.00
45525;BME280;31437;58.350;13.828;2023-04-01T07:52:34;99328.63;;;2.46;100.00
45525;BME280;31437;58.350;13.828;2023-04-01T07:55:06;99336.38;;;2.46;100.00
45525;BME280;31437;58.350;13.828;2023-04-01T07:57:57;99336.09;;;2.31;100.00
45525;BME280;31437;58.350;13.828;2023-04-01T08:00:27;99342.50;;;2.44;100.00
45525;BME280;31437;58.350;13.828;2023-04-01T08:05:41;99344.22;;;2.45;100.00
45525;BME280;31437;58.350;13.828;2023-04-01T08:10:43;99346.56;;;2.26;100.00
45525;BME280;31437;58.350;13.828;2023-04-01T08:13:33;99357.94;;;1.95;100.00
45525;BME280;31437;58.350;13.828;2023-04-01T08:21:00;99365.91;;;2.41;100.00
45525;BME280;31437;58.350;13.828;2023-04-01T08:23:47;99366.94;;;2.37;100.00
45525;BME280;31437;58.350;13.828;2023-04-01T08:26:32;99369.84;;;2.01;100.00
45525;BME280;31437;58.350;13.828;2023-04-01T08:29:09;99365.09;;;2.14;100.00
45525;BME280;31437;58.350;13.828;2023-04-01T08:31:43;99371.06;;;2.42;100.00
45525;BME280;31437;58.350;13.828;2023-04-01T08:34:14;99374.59;;;2.40;100.00
45525;BME280;31437;58.350;13.828;2023-04-01T08:36:43;99371.91;;;2.43;100.00
45525;BME280;31437;58.350;13.828;2023-04-01T08:39:17;99372.56;;;2.23;100.00
45525;BME280;31437;58.350;13.828;2023-04-01T08:52:42;99379.25;;;2.03;100.00
45525;BME280;31437;58.350;13.828;2023-04-01T08:57:45;99375.56;;;2.11;100.00
45525;BME280;31437;58.350;13.828;2023-04-01T09:05:21;99384.88;;;1.88;100.00
45525;BME280;31437;58.350;13.828;2023-04-01T09:08:00;99386.50;;;1.92;100.00
45525;BME280;31437;58.350;13.828;2023-04-01T09:20:58;99401.31;;;2.40;100.00
45525;BME280;31437;58.350;13.828;2023-04-01T09:28:25;99406.31;;;2.20;100.00
45525;BME280;31437;58.350;13.828;2023-04-01T09:33:51;99413.81;;;2.01;100.00
45525;BME280;31437;58.350;13.828;2023-04-01T09:36:57;99417.47;;;1.94;100.00
45525;BME280;31437;58.350;13.828;2023-04-01T09:41:46;99418.59;;;2.13;100.00
45525;BME280;31437;58.350;13.828;2023-04-01T09:44:23;99427.38;;;2.09;100.00
45525;BME280;31437;58.350;13.828;2023-04-01T09:47:01;99425.31;;;2.19;100.00
45525;BME280;31437;58.350;13.828;2023-04-01T09:57:41;99430.88;;;2.07;100.00
45525;BME280;31437;58.350;13.828;2023-04-01T10:03:10;99434.25;;;2.35;100.00
45525;BME280;31437;58.350;13.828;2023-04-01T10:08:44;99441.03;;;2.66;100.00
45525;BME280;31437;58.350;13.828;2023-04-01T10:19:25;99446.97;;;2.43;100.00
45525;BME280;31437;58.350;13.828;2023-04-01T10:22:04;99455.97;;;2.58;100.00
45525;BME280;31437;58.350;13.828;2023-04-01T10:37:56;99470.16;;;2.72;100.00
45525;BME280;31437;58.350;13.828;2023-04-01T10:45:52;99471.16;;;2.68;100.00
45525;BME280;31437;58.350;13.828;2023-04-01T10:48:23;99469.53;;;2.66;100.00
45525;BME280;31437;58.350;13.828;2023-04-01T10:51:14;99485.47;;;2.54;100.00
45525;BME280;31437;58.350;13.828;2023-04-01T10:56:36;99488.06;;;2.54;100.00
45525;BME280;31437;58.350;13.828;2023-04-01T11:33:03;99511.66;;;2.16;100.00
45525;BME280;31437;58.350;13.828;2023-04-01T11:35:34;99510.66;;;2.20;100.00
45525;BME280;31437;58.350;13.828;2023-04-01T11:43:11;99522.31;;;2.05;100.00
45525;BME280;31437;58.350;13.828;2023-04-01T11:51:04;99533.28;;;2.14;100.00
45525;BME280;31437;58.350;13.828;2023-04-01T11:56:09;99529.19;;;2.35;100.00
45525;BME280;31437;58.350;13.828;2023-04-01T12:06:48;99543.94;;;2.33;100.00
45525;BME280;31437;58.350;13.828;2023-04-01T12:09:39;99536.75;;;2.42;100.00
45525;BME280;31437;58.350;13.828;2023-04-01T12:17:50;99546.63;;;2.30;100.00
45525;BME280;31437;58.350;13.828;2023-04-01T12:20:02;99546.53;;;2.33;100.00
45525;BME280;31437;58.350;13.828;2023-04-01T12:25:11;99549.63;;;2.44;100.00
45525;BME280;31437;58.350;13.828;2023-04-01T12:40:47;99577.06;;;2.49;100.00
45525;BME280;31437;58.350;13.828;2023-04-01T12:43:23;99565.75;;;2.54;100.00
45525;BME280;31437;58.350;13.828;2023-04-01T12:59:00;99579.94;;;2.68;100.00
45525;BME280;31437;58.350;13.828;2023-04-01T13:01:30;99582.56;;;2.67;100.00
45525;BME280;31437;58.350;13.828;2023-04-01T13:04:06;99577.34;;;2.68;100.00
45525;BME280;31437;58.350;13.828;2023-04-01T13:09:16;99581.72;;;2.66;100.00
45525;BME280;31437;58.350;13.828;2023-04-01T13:16:54;99587.34;;;2.79;100.00
45525;BME280;31437;58.350;13.828;2023-04-01T13:19:25;99592.28;;;2.88;100.00
45525;BME280;31437;58.350;13.828;2023-04-01T13:29:46;99602.47;;;2.93;100.00
45525;BME280;31437;58.350;13.828;2023-04-01T13:42:48;99627.84;;;2.83;100.00
45525;BME280;31437;58.350;13.828;2023-04-01T13:51:13;99627.09;;;2.80;100.00
45525;BME280;31437;58.350;13.828;2023-04-01T13:56:34;99624.50;;;2.80;100.00
45525;BME280;31437;58.350;13.828;2023-04-01T13:59:05;99638.31;;;2.79;100.00
45525;BME280;31437;58.350;13.828;2023-04-01T14:19:37;99640.78;;;2.83;100.00
45525;BME280;31437;58.350;13.828;2023-04-01T14:24:49;99638.41;;;2.76;100.00
45525;BME280;31437;58.350;13.828;2023-04-01T14:35:25;99657.38;;;2.78;100.00
45525;BME280;31437;58.350;13.828;2023-04-01T14:48:25;99676.56;;;2.70;100.00
45525;BME280;31437;58.350;13.828;2023-04-01T14:50:54;99679.31;;;2.66;100.00
45525;BME280;31437;58.350;13.828;2023-04-01T14:55:58;99673.47;;;2.59;100.00
45525;BME280;31437;58.350;13.828;2023-04-01T14:58:25;99691.53;;;2.61;100.00
45525;BME280;31437;58.350;13.828;2023-04-01T15:06:35;99690.69;;;2.60;100.00
45525;BME280;31437;58.350;13.828;2023-04-01T15:27:28;99711.75;;;2.48;100.00
45525;BME280;31437;58.350;13.828;2023-04-01T15:30:05;99714.38;;;2.46;100.00
45525;BME280;31437;58.350;13.828;2023-04-01T15:35:38;99723.13;;;2.42;100.00
45525;BME280;31437;58.350;13.828;2023-04-01T15:40:49;99727.47;;;2.42;100.00
45525;BME280;31437;58.350;13.828;2023-04-01T15:56:36;99740.88;;;2.25;100.00
45525;BME280;31437;58.350;13.828;2023-04-01T15:59:09;99743.56;;;2.20;100.00
45525;BME280;31437;58.350;13.828;2023-04-01T16:04:17;99745.56;;;2.11;100.00
45525;BME280;31437;58.350;13.828;2023-04-01T16:12:07;99755.56;;;1.92;100.00
45525;BME280;31437;58.350;13.828;2023-04-01T16:27:16;99759.38;;;1.77;100.00
45525;BME280;31437;58.350;13.828;2023-04-01T16:32:44;99746.88;;;1.58;100.00
45525;BME280;31437;58.350;13.828;2023-04-01T16:37:43;99779.63;;;1.59;100.00
45525;BME280;31437;58.350;13.828;2023-04-01T16:40:25;99785.66;;;1.58;100.00
45525;BME280;31437;58.350;13.828;2023-04-01T16:45:37;99792.56;;;1.59;100.00
45525;BME280;31437;58.350;13.828;2023-04-01T16:48:12;99799.53;;;1.56;100.00
45525;BME280;31437;58.350;13.828;2023-04-01T16:50:48;99800.56;;;1.49;100.00
45525;BME280;31437;58.350;13.828;2023-04-01T16:53:24;99800.69;;;1.44;100.00
45525;BME280;31437;58.350;13.828;2023-04-01T16:55:52;99798.19;;;1.38;100.00
45525;BME280;31437;58.350;13.828;2023-04-01T16:58:26;99806.94;;;1.34;100.00
45525;BME280;31437;58.350;13.828;2023-04-01T17:06:01;99820.41;;;1.08;100.00
45525;BME280;31437;58.350;13.828;2023-04-01T17:30:13;99838.78;;;0.49;100.00
45525;BME280;31437;58.350;13.828;2023-04-01T17:40:25;99860.78;;;0.20;100.00
45525;BME280;31437;58.350;13.828;2023-04-01T17:50:53;99881.34;;;-0.28;100.00
45525;BME280;31437;58.350;13.828;2023-04-01T17:55:52;99881.66;;;-0.49;100.00
45525;BME280;31437;58.350;13.828;2023-04-01T17:58:21;99883.56;;;-0.63;100.00
45525;BME280;31437;58.350;13.828;2023-04-01T18:01:08;99888.00;;;-0.73;100.00
45525;BME280;31437;58.350;13.828;2023-04-01T18:06:09;99895.03;;;-0.89;100.00
45525;BME280;31437;58.350;13.828;2023-04-01T18:12:11;99896.06;;;-1.02;100.00
45525;BME280;31437;58.350;13.828;2023-04-01T18:14:13;99901.31;;;-1.10;100.00
45525;BME280;31437;58.350;13.828;2023-04-01T18:34:10;100075.28;;;-0.86;100.00
45525;BME280;31437;58.350;13.828;2023-04-01T18:36:47;100052.09;;;-0.86;100.00
45525;BME280;31437;58.350;13.828;2023-04-01T18:39:30;100064.22;;;-0.94;100.00
45525;BME280;31437;58.350;13.828;2023-04-01T18:47:27;100188.13;;;-1.45;100.00
45525;BME280;31437;58.350;13.828;2023-04-01T18:52:44;100243.94;;;-1.50;100.00
45525;BME280;31437;58.350;13.828;2023-04-01T18:57:49;100291.91;;;-1.43;100.00
45525;BME280;31437;58.350;13.828;2023-04-01T19:00:19;100307.38;;;-1.41;100.00
45525;BME280;31437;58.350;13.828;2023-04-01T19:05:32;100343.41;;;-1.46;100.00
45525;BME280;31437;58.350;13.828;2023-04-01T19:16:17;100418.91;;;-1.57;100.00
45525;BME280;31437;58.350;13.828;2023-04-01T19:21:21;100428.31;;;-1.56;100.00
45525;BME280;31437;58.350;13.828;2023-04-01T19:28:54;100457.47;;;-1.62;100.00
45525;BME280;31437;58.350;13.828;2023-04-01T19:31:29;100466.94;;;-1.61;100.00
45525;BME280;31437;58.350;13.828;2023-04-01T19:34:42;100452.34;;;-1.61;100.00
45525;BME280;31437;58.350;13.828;2023-04-01T19:36:53;100447.22;;;-1.67;100.00
45525;BME280;31437;58.350;13.828;2023-04-01T19:42:03;100466.06;;;-1.62;100.00
45525;BME280;31437;58.350;13.828;2023-04-01T20:03:15;100352.03;;;-1.70;100.00
45525;BME280;31437;58.350;13.828;2023-04-01T20:08:33;100290.22;;;-1.56;100.00
45525;BME280;31437;58.350;13.828;2023-04-01T20:11:06;100256.78;;;-1.51;100.00
45525;BME280;31437;58.350;13.828;2023-04-01T20:13:40;100209.59;;;-1.47;100.00
45525;BME280;31437;58.350;13.828;2023-04-01T20:16:14;100195.88;;;-1.48;100.00
45525;BME280;31437;58.350;13.828;2023-04-01T20:18:48;100187.28;;;-1.45;100.00
45525;BME280;31437;58.350;13.828;2023-04-01T20:21:18;100177.91;;;-1.55;100.00
45525;BME280;31437;58.350;13.828;2023-04-01T20:24:07;100177.06;;;-1.61;100.00
45525;BME280;31437;58.350;13.828;2023-04-01T20:26:47;100187.41;;;-1.71;100.00
45525;BME280;31437;58.350;13.828;2023-04-01T20:50:24;100227.75;;;-1.89;100.00
45525;BME280;31437;58.350;13.828;2023-04-01T20:53:04;100242.34;;;-1.92;100.00
45525;BME280;31437;58.350;13.828;2023-04-01T21:00:58;100253.47;;;-1.84;100.00
45525;BME280;31437;58.350;13.828;2023-04-01T21:06:25;100247.47;;;-1.86;100.00
45525;BME280;31437;58.350;13.828;2023-04-01T21:11:28;100237.19;;;-1.95;100.00
45525;BME280;31437;58.350;13.828;2023-04-01T21:22:03;100277.50;;;-2.03;100.00
45525;BME280;31437;58.350;13.828;2023-04-01T21:47:48;100328.91;;;-2.34;100.00
45525;BME280;31437;58.350;13.828;2023-04-01T21:50:42;100347.75;;;-2.40;100.00
45525;BME280;31437;58.350;13.828;2023-04-01T21:58:37;100423.13;;;-2.47;100.00
45525;BME280;31437;58.350;13.828;2023-04-01T22:11:33;100527.56;;;-2.55;100.00
45525;BME280;31437;58.350;13.828;2023-04-01T22:14:01;100542.09;;;-2.59;100.00
45525;BME280;31437;58.350;13.828;2023-04-01T22:16:35;100561.81;;;-2.55;100.00
45525;BME280;31437;58.350;13.828;2023-04-01T22:27:45;100627.69;;;-2.60;100.00
45525;BME280;31437;58.350;13.828;2023-04-01T22:33:02;100642.31;;;-2.56;100.00
45525;BME280;31437;58.350;13.828;2023-04-01T22:37:58;100672.13;;;-2.75;100.00
45525;BME280;31437;58.350;13.828;2023-04-01T22:43:06;100783.31;;;-2.85;100.00
45525;BME280;31437;58.350;13.828;2023-04-01T22:45:56;100825.25;;;-2.83;100.00
45525;BME280;31437;58.350;13.828;2023-04-01T22:48:29;100846.59;;;-2.88;100.00
45525;BME280;31437;58.350;13.828;2023-04-01T22:51:07;100888.56;;;-2.88;100.00
45525;BME280;31437;58.350;13.828;2023-04-01T22:56:22;100913.50;;;-2.79;100.00
45525;BME280;31437;58.350;13.828;2023-04-01T22:58:55;100882.81;;;-2.67;100.00
45525;BME280;31437;58.350;13.828;2023-04-01T23:01:25;100846.84;;;-2.65;100.00
45525;BME280;31437;58.350;13.828;2023-04-01T23:03:54;100813.47;;;-2.65;100.00
45525;BME280;31437;58.350;13.828;2023-04-01T23:06:29;100767.28;;;-2.59;100.00